sensor_id;sensor_type;location;lat;lon;timestamp;P1;durP1;ratioP1;P2;durP2;ratioP2
38399;SDS011;24180;42.676;23.320;2024-03-02T00:00:50;18.70;;;9.07;;
38399;SDS011;24180;42.676;23.320;2024-03-02T00:03:17;19.33;;;8.70;;
38399;SDS011;24180;42.676;23.320;2024-03-02T00:05:43;19.83;;;9.40;;
38399;SDS011;24180;42.676;23.320;2024-03-02T00:08:09;18.50;;;8.48;;
38399;SDS011;24180;42.676;23.320;2024-03-02T00:10:37;18.35;;;9.27;;
38399;SDS011;24180;42.676;23.320;2024-03-02T00:13:07;16.30;;;8.63;;
38399;SDS011;24180;42.676;23.320;2024-03-02T00:18:10;21.58;;;9.70;;
38399;SDS011;24180;42.676;23.320;2024-03-02T00:20:37;16.08;;;7.97;;
38399;SDS011;24180;42.676;23.320;2024-03-02T00:23:04;17.20;;;8.27;;
38399;SDS011;24180;42.676;23.320;2024-03-02T00:25:44;18.45;;;8.60;;
38399;SDS011;24180;42.676;23.320;2024-03-02T00:28:18;18.00;;;9.18;;
38399;SDS011;24180;42.676;23.320;2024-03-02T00:30:50;16.08;;;8.10;;
38399;SDS011;24180;42.676;23.320;2024-03-02T00:33:19;18.27;;;8.88;;
38399;SDS011;24180;42.676;23.320;2024-03-02T00:40:37;15.55;;;8.18;;
38399;SDS011;24180;42.676;23.320;2024-03-02T00:43:03;16.20;;;8.02;;
38399;SDS011;24180;42.676;23.320;2024-03-02T00:45:29;18.52;;;8.90;;
38399;SDS011;24180;42.676;23.320;2024-03-02T00:47:55;20.83;;;8.80;;
38399;SDS011;24180;42.676;23.320;2024-03-02T00:50:20;18.70;;;8.25;;
38399;SDS011;24180;42.676;23.320;2024-03-02T00:52:46;19.77;;;8.75;;
38399;SDS011;24180;42.676;23.320;2024-03-02T00:55:13;17.25;;;8.73;;
38399;SDS011;24180;42.676;23.320;2024-03-02T00:57:39;16.05;;;7.50;;
38399;SDS011;24180;42.676;23.320;2024-03-02T01:00:05;17.42;;;8.88;;
38399;SDS011;24180;42.676;23.320;2024-03-02T01:02:34;16.73;;;8.90;;
38399;SDS011;24180;42.676;23.320;2024-03-02T01:05:00;14.98;;;7.60;;
38399;SDS011;24180;42.676;23.320;2024-03-02T01:07:25;18.95;;;8.65;;
38399;SDS011;24180;42.676;23.320;2024-03-02T01:09:51;17.92;;;7.97;;
38399;SDS011;24180;42.676;23.320;2024-03-02T01:12:17;16.77;;;8.90;;
38399;SDS011;24180;42.676;23.320;2024-03-02T01:14:42;18.77;;;8.02;;
38399;SDS011;24180;42.676;23.320;2024-03-02T01:17:07;14.68;;;8.35;;
38399;SDS011;24180;42.676;23.320;2024-03-02T01:19:33;16.25;;;7.28;;
38399;SDS011;24180;42.676;23.320;2024-03-02T01:21:58;15.68;;;7.57;;
38399;SDS011;24180;42.676;23.320;2024-03-02T01:24:24;14.70;;;7.53;;
38399;SDS011;24180;42.676;23.320;2024-03-02T01:26:50;17.63;;;8.68;;
38399;SDS011;24180;42.676;23.320;2024-03-02T01:29:15;13.02;;;6.25;;
38399;SDS011;24180;42.676;23.320;2024-03-02T01:31:41;16.23;;;8.20;;
38399;SDS011;24180;42.676;23.320;2024-03-02T01:34:07;16.63;;;8.52;;
38399;SDS011;24180;42.676;23.320;2024-03-02T01:36:33;18.17;;;8.27;;
38399;SDS011;24180;42.676;23.320;2024-03-02T01:38:59;18.30;;;8.23;;
38399;SDS011;24180;42.676;23.320;2024-03-02T01:41:24;15.77;;;8.32;;
38399;SDS011;24180;42.676;23.320;2024-03-02T01:43:50;16.33;;;8.02;;
38399;SDS011;24180;42.676;23.320;2024-03-02T01:46:16;19.38;;;8.27;;
38399;SDS011;24180;42.676;23.320;2024-03-02T01:48:41;16.23;;;8.48;;
38399;SDS011;24180;42.676;23.320;2024-03-02T01:51:07;17.33;;;7.57;;
38399;SDS011;24180;42.676;23.320;2024-03-02T01:53:33;15.27;;;7.90;;
38399;SDS011;24180;42.676;23.320;2024-03-02T01:55:59;18.15;;;8.32;;
38399;SDS011;24180;42.676;23.320;2024-03-02T01:58:26;18.98;;;8.48;;
38399;SDS011;24180;42.676;23.320;2024-03-02T02:00:52;17.73;;;8.90;;
38399;SDS011;24180;42.676;23.320;2024-03-02T02:03:17;21.30;;;9.30;;
38399;SDS011;24180;42.676;23.320;2024-03-02T02:05:43;15.05;;;7.80;;
38399;SDS011;24180;42.676;23.320;2024-03-02T02:08:08;19.83;;;8.82;;
38399;SDS011;24180;42.676;23.320;2024-03-02T02:10:34;19.80;;;9.02;;
38399;SDS011;24180;42.676;23.320;2024-03-02T02:12:59;21.60;;;9.82;;
38399;SDS011;24180;42.676;23.320;2024-03-02T02:15:25;19.48;;;9.15;;
38399;SDS011;24180;42.676;23.320;2024-03-02T02:17:51;21.00;;;9.57;;
38399;SDS011;24180;42.676;23.320;2024-03-02T02:20:17;21.92;;;10.02;;
38399;SDS011;24180;42.676;23.320;2024-03-02T02:25:21;23.38;;;11.07;;
38399;SDS011;24180;42.676;23.320;2024-03-02T02:27:47;22.88;;;11.10;;
38399;SDS011;24180;42.676;23.320;2024-03-02T02:30:12;21.35;;;10.73;;
38399;SDS011;24180;42.676;23.320;2024-03-02T02:32:38;20.55;;;10.00;;
38399;SDS011;24180;42.676;23.320;2024-03-02T02:35:03;22.58;;;10.05;;
38399;SDS011;24180;42.676;23.320;2024-03-02T02:37:30;24.00;;;11.27;;
38399;SDS011;24180;42.676;23.320;2024-03-02T02:39:56;20.30;;;8.98;;
38399;SDS011;24180;42.676;23.320;2024-03-02T02:42:21;23.63;;;9.90;;
38399;SDS011;24180;42.676;23.320;2024-03-02T02:44:46;21.20;;;10.32;;
38399;SDS011;24180;42.676;23.320;2024-03-02T02:47:12;20.55;;;9.85;;
38399;SDS011;24180;42.676;23.320;2024-03-02T02:49:37;26.38;;;10.65;;
38399;SDS011;24180;42.676;23.320;2024-03-02T02:52:03;21.75;;;9.48;;
38399;SDS011;24180;42.676;23.320;2024-03-02T02:54:28;25.60;;;9.90;;
38399;SDS011;24180;42.676;23.320;2024-03-02T02:56:54;22.63;;;9.52;;
38399;SDS011;24180;42.676;23.320;2024-03-02T02:59:19;22.55;;;10.25;;
38399;SDS011;24180;42.676;23.320;2024-03-02T03:01:45;24.58;;;9.82;;
38399;SDS011;24180;42.676;23.320;2024-03-02T03:04:10;23.63;;;9.05;;
38399;SDS011;24180;42.676;23.320;2024-03-02T03:06:36;25.75;;;9.73;;
38399;SDS011;24180;42.676;23.320;2024-03-02T03:09:01;26.77;;;10.23;;
38399;SDS011;24180;42.676;23.320;2024-03-02T03:11:27;23.63;;;10.38;;
38399;SDS011;24180;42.676;23.320;2024-03-02T03:13:53;26.60;;;10.15;;
38399;SDS011;24180;42.676;23.320;2024-03-02T03:16:19;26.15;;;10.93;;
38399;SDS011;24180;42.676;23.320;2024-03-02T03:18:45;22.70;;;9.23;;
38399;SDS011;24180;42.676;23.320;2024-03-02T03:21:10;22.05;;;10.32;;
38399;SDS011;24180;42.676;23.320;2024-03-02T03:23:36;22.92;;;10.23;;
38399;SDS011;24180;42.676;23.320;2024-03-02T03:26:01;24.90;;;11.25;;
38399;SDS011;24180;42.676;23.320;2024-03-02T03:28:27;24.95;;;10.98;;
38399;SDS011;24180;42.676;23.320;2024-03-02T03:30:52;27.83;;;10.40;;
38399;SDS011;24180;42.676;23.320;2024-03-02T03:33:17;27.10;;;10.90;;
38399;SDS011;24180;42.676;23.320;2024-03-02T03:35:43;23.88;;;10.40;;
38399;SDS011;24180;42.676;23.320;2024-03-02T03:38:09;29.38;;;12.57;;
38399;SDS011;24180;42.676;23.320;2024-03-02T03:40:35;25.63;;;10.77;;
38399;SDS011;24180;42.676;23.320;2024-03-02T03:43:00;24.95;;;10.93;;
38399;SDS011;24180;42.676;23.320;2024-03-02T03:45:26;23.50;;;10.32;;
38399;SDS011;24180;42.676;23.320;2024-03-02T03:47:52;23.58;;;10.68;;
38399;SDS011;24180;42.676;23.320;2024-03-02T03:50:18;22.52;;;10.32;;
38399;SDS011;24180;42.676;23.320;2024-03-02T03:52:44;22.92;;;9.70;;
38399;SDS011;24180;42.676;23.320;2024-03-02T03:55:10;26.70;;;10.48;;
38399;SDS011;24180;42.676;23.320;2024-03-02T03:57:35;24.90;;;11.10;;
38399;SDS011;24180;42.676;23.320;2024-03-02T04:00:01;25.13;;;10.70;;
38399;SDS011;24180;42.676;23.320;2024-03-02T04:02:26;29.58;;;10.63;;
38399;SDS011;24180;42.676;23.320;2024-03-02T04:04:52;25.30;;;11.75;;
38399;SDS011;24180;42.676;23.320;2024-03-02T04:07:17;36.20;;;13.40;;
38399;SDS011;24180;42.676;23.320;2024-03-02T04:09:43;24.55;;;11.27;;
38399;SDS011;24180;42.676;23.320;2024-03-02T04:12:08;29.90;;;12.32;;
38399;SDS011;24180;42.676;23.320;2024-03-02T04:14:34;28.60;;;12.18;;
38399;SDS011;24180;42.676;23.320;2024-03-02T04:16:59;35.70;;;16.30;;
38399;SDS011;24180;42.676;23.320;2024-03-02T04:19:25;36.92;;;13.35;;
38399;SDS011;24180;42.676;23.320;2024-03-02T04:21:50;29.13;;;12.45;;
38399;SDS011;24180;42.676;23.320;2024-03-02T04:24:16;30.15;;;13.07;;
38399;SDS011;24180;42.676;23.320;2024-03-02T04:26:41;27.02;;;12.68;;
38399;SDS011;24180;42.676;23.320;2024-03-02T04:29:07;32.33;;;12.75;;
38399;SDS011;24180;42.676;23.320;2024-03-02T04:31:32;28.00;;;11.90;;
38399;SDS011;24180;42.676;23.320;2024-03-02T04:33:58;26.90;;;12.98;;
38399;SDS011;24180;42.676;23.320;2024-03-02T04:36:23;37.03;;;13.85;;
38399;SDS011;24180;42.676;23.320;2024-03-02T04:38:49;31.95;;;12.15;;
38399;SDS011;24180;42.676;23.320;2024-03-02T04:41:14;27.30;;;12.32;;
38399;SDS011;24180;42.676;23.320;2024-03-02T04:43:40;24.38;;;11.07;;
38399;SDS011;24180;42.676;23.320;2024-03-02T04:46:06;28.48;;;12.27;;
38399;SDS011;24180;42.676;23.320;2024-03-02T04:48:32;27.20;;;12.13;;
38399;SDS011;24180;42.676;23.320;2024-03-02T04:50:58;27.10;;;11.23;;
38399;SDS011;24180;42.676;23.320;2024-03-02T04:53:24;31.75;;;12.55;;
38399;SDS011;24180;42.676;23.320;2024-03-02T04:55:49;31.77;;;13.30;;
38399;SDS011;24180;42.676;23.320;2024-03-02T04:58:20;28.13;;;12.75;;
38399;SDS011;24180;42.676;23.320;2024-03-02T05:00:46;30.80;;;12.93;;
38399;SDS011;24180;42.676;23.320;2024-03-02T05:03:12;29.45;;;13.45;;
38399;SDS011;24180;42.676;23.320;2024-03-02T05:05:38;35.95;;;13.20;;
38399;SDS011;24180;42.676;23.320;2024-03-02T05:08:03;40.30;;;14.00;;
38399;SDS011;24180;42.676;23.320;2024-03-02T05:10:29;35.80;;;12.75;;
38399;SDS011;24180;42.676;23.320;2024-03-02T05:12:54;31.63;;;11.95;;
38399;SDS011;24180;42.676;23.320;2024-03-02T05:15:24;34.75;;;13.70;;
38399;SDS011;24180;42.676;23.320;2024-03-02T05:17:50;33.45;;;13.88;;
38399;SDS011;24180;42.676;23.320;2024-03-02T05:20:16;39.10;;;13.98;;
38399;SDS011;24180;42.676;23.320;2024-03-02T05:22:42;38.55;;;14.50;;
38399;SDS011;24180;42.676;23.320;2024-03-02T05:25:07;37.33;;;14.75;;
38399;SDS011;24180;42.676;23.320;2024-03-02T05:27:34;41.65;;;15.85;;
38399;SDS011;24180;42.676;23.320;2024-03-02T05:30:00;51.63;;;17.60;;
38399;SDS011;24180;42.676;23.320;2024-03-02T05:32:26;45.88;;;15.95;;
38399;SDS011;24180;42.676;23.320;2024-03-02T05:34:52;40.13;;;15.38;;
38399;SDS011;24180;42.676;23.320;2024-03-02T05:37:17;48.15;;;16.95;;
38399;SDS011;24180;42.676;23.320;2024-03-02T05:39:43;43.15;;;16.60;;
38399;SDS011;24180;42.676;23.320;2024-03-02T05:42:09;46.90;;;16.73;;
38399;SDS011;24180;42.676;23.320;2024-03-02T05:44:35;50.25;;;16.40;;
38399;SDS011;24180;42.676;23.320;2024-03-02T05:47:01;44.42;;;16.20;;
38399;SDS011;24180;42.676;23.320;2024-03-02T05:49:27;39.97;;;15.27;;
38399;SDS011;24180;42.676;23.320;2024-03-02T05:51:52;39.80;;;14.75;;
38399;SDS011;24180;42.676;23.320;2024-03-02T05:54:18;42.35;;;16.83;;
38399;SDS011;24180;42.676;23.320;2024-03-02T05:56:43;43.35;;;16.33;;
38399;SDS011;24180;42.676;23.320;2024-03-02T05:59:09;44.90;;;15.57;;
38399;SDS011;24180;42.676;23.320;2024-03-02T06:01:46;44.15;;;16.02;;
38399;SDS011;24180;42.676;23.320;2024-03-02T06:04:13;47.17;;;15.80;;
38399;SDS011;24180;42.676;23.320;2024-03-02T06:06:39;49.30;;;18.10;;
38399;SDS011;24180;42.676;23.320;2024-03-02T06:09:05;49.70;;;16.98;;
38399;SDS011;24180;42.676;23.320;2024-03-02T06:11:39;47.45;;;15.98;;
38399;SDS011;24180;42.676;23.320;2024-03-02T06:14:06;41.17;;;13.68;;
38399;SDS011;24180;42.676;23.320;2024-03-02T06:21:23;38.80;;;13.15;;
38399;SDS011;24180;42.676;23.320;2024-03-02T06:23:49;39.05;;;14.55;;
38399;SDS011;24180;42.676;23.320;2024-03-02T06:26:15;41.60;;;14.45;;
38399;SDS011;24180;42.676;23.320;2024-03-02T06:28:40;33.22;;;14.00;;
38399;SDS011;24180;42.676;23.320;2024-03-02T06:31:06;33.42;;;12.68;;
38399;SDS011;24180;42.676;23.320;2024-03-02T06:33:32;32.20;;;12.32;;
38399;SDS011;24180;42.676;23.320;2024-03-02T06:35:57;35.47;;;13.77;;
38399;SDS011;24180;42.676;23.320;2024-03-02T06:38:23;34.92;;;13.07;;
38399;SDS011;24180;42.676;23.320;2024-03-02T06:40:48;32.67;;;13.73;;
38399;SDS011;24180;42.676;23.320;2024-03-02T06:43:13;29.88;;;12.75;;
38399;SDS011;24180;42.676;23.320;2024-03-02T06:45:39;37.63;;;13.93;;
38399;SDS011;24180;42.676;23.320;2024-03-02T06:48:04;32.03;;;12.35;;
38399;SDS011;24180;42.676;23.320;2024-03-02T06:50:30;34.47;;;13.45;;
38399;SDS011;24180;42.676;23.320;2024-03-02T06:52:56;38.05;;;13.38;;
38399;SDS011;24180;42.676;23.320;2024-03-02T06:55:22;32.45;;;13.68;;
38399;SDS011;24180;42.676;23.320;2024-03-02T06:57:49;36.03;;;14.10;;
38399;SDS011;24180;42.676;23.320;2024-03-02T07:00:15;35.28;;;13.48;;
38399;SDS011;24180;42.676;23.320;2024-03-02T07:02:42;31.52;;;14.15;;
38399;SDS011;24180;42.676;23.320;2024-03-02T07:05:08;36.22;;;12.65;;
38399;SDS011;24180;42.676;23.320;2024-03-02T07:07:34;33.25;;;13.05;;
38399;SDS011;24180;42.676;23.320;2024-03-02T07:10:00;33.30;;;13.15;;
38399;SDS011;24180;42.676;23.320;2024-03-02T07:12:26;33.97;;;12.02;;
38399;SDS011;24180;42.676;23.320;2024-03-02T07:14:51;36.03;;;12.77;;
38399;SDS011;24180;42.676;23.320;2024-03-02T07:17:29;34.40;;;12.68;;
38399;SDS011;24180;42.676;23.320;2024-03-02T07:19:57;34.95;;;13.70;;
38399;SDS011;24180;42.676;23.320;2024-03-02T07:22:23;38.05;;;14.15;;
38399;SDS011;24180;42.676;23.320;2024-03-02T07:24:49;33.53;;;12.13;;
38399;SDS011;24180;42.676;23.320;2024-03-02T07:27:15;34.10;;;13.25;;
38399;SDS011;24180;42.676;23.320;2024-03-02T07:29:41;42.35;;;14.77;;
38399;SDS011;24180;42.676;23.320;2024-03-02T07:32:08;33.95;;;12.85;;
38399;SDS011;24180;42.676;23.320;2024-03-02T07:34:34;38.53;;;14.60;;
38399;SDS011;24180;42.676;23.320;2024-03-02T07:37:00;34.10;;;13.73;;
38399;SDS011;24180;42.676;23.320;2024-03-02T07:39:25;39.08;;;14.10;;
38399;SDS011;24180;42.676;23.320;2024-03-02T07:41:51;38.25;;;13.77;;
38399;SDS011;24180;42.676;23.320;2024-03-02T07:44:17;36.15;;;13.10;;
38399;SDS011;24180;42.676;23.320;2024-03-02T07:46:44;35.83;;;13.75;;
38399;SDS011;24180;42.676;23.320;2024-03-02T07:49:17;35.15;;;12.98;;
38399;SDS011;24180;42.676;23.320;2024-03-02T07:51:43;40.60;;;12.93;;
38399;SDS011;24180;42.676;23.320;2024-03-02T07:54:09;36.65;;;14.23;;
38399;SDS011;24180;42.676;23.320;2024-03-02T07:56:35;35.38;;;12.95;;
38399;SDS011;24180;42.676;23.320;2024-03-02T07:59:01;38.08;;;13.90;;
38399;SDS011;24180;42.676;23.320;2024-03-02T08:01:28;34.50;;;13.15;;
38399;SDS011;24180;42.676;23.320;2024-03-02T08:03:57;35.85;;;12.20;;
38399;SDS011;24180;42.676;23.320;2024-03-02T08:06:28;36.97;;;12.52;;
38399;SDS011;24180;42.676;23.320;2024-03-02T08:08:53;33.13;;;12.73;;
38399;SDS011;24180;42.676;23.320;2024-03-02T08:11:20;31.08;;;12.23;;
38399;SDS011;24180;42.676;23.320;2024-03-02T08:13:46;32.58;;;12.90;;
38399;SDS011;24180;42.676;23.320;2024-03-02T08:16:11;35.38;;;12.90;;
38399;SDS011;24180;42.676;23.320;2024-03-02T08:18:37;27.17;;;11.30;;
38399;SDS011;24180;42.676;23.320;2024-03-02T08:21:02;28.02;;;11.90;;
38399;SDS011;24180;42.676;23.320;2024-03-02T08:23:28;31.58;;;11.05;;
38399;SDS011;24180;42.676;23.320;2024-03-02T08:25:54;30.83;;;11.27;;
38399;SDS011;24180;42.676;23.320;2024-03-02T08:28:19;29.50;;;11.52;;
38399;SDS011;24180;42.676;23.320;2024-03-02T08:30:45;30.73;;;12.18;;
38399;SDS011;24180;42.676;23.320;2024-03-02T08:33:10;27.35;;;10.70;;
38399;SDS011;24180;42.676;23.320;2024-03-02T08:35:36;25.50;;;11.05;;
38399;SDS011;24180;42.676;23.320;2024-03-02T08:38:04;24.83;;;10.88;;
38399;SDS011;24180;42.676;23.320;2024-03-02T08:40:30;27.92;;;11.48;;
38399;SDS011;24180;42.676;23.320;2024-03-02T08:42:56;24.25;;;11.13;;
38399;SDS011;24180;42.676;23.320;2024-03-02T08:45:21;28.42;;;10.70;;
38399;SDS011;24180;42.676;23.320;2024-03-02T08:47:47;33.35;;;14.90;;
38399;SDS011;24180;42.676;23.320;2024-03-02T08:50:13;24.67;;;11.73;;
38399;SDS011;24180;42.676;23.320;2024-03-02T08:52:57;23.48;;;10.60;;
38399;SDS011;24180;42.676;23.320;2024-03-02T08:55:22;27.20;;;11.60;;
38399;SDS011;24180;42.676;23.320;2024-03-02T08:57:48;21.35;;;10.80;;
38399;SDS011;24180;42.676;23.320;2024-03-02T09:00:15;23.45;;;10.82;;
38399;SDS011;24180;42.676;23.320;2024-03-02T09:02:43;26.10;;;11.02;;
38399;SDS011;24180;42.676;23.320;2024-03-02T09:05:09;28.63;;;11.98;;
38399;SDS011;24180;42.676;23.320;2024-03-02T09:07:35;22.23;;;11.07;;
38399;SDS011;24180;42.676;23.320;2024-03-02T09:10:00;23.48;;;10.07;;
38399;SDS011;24180;42.676;23.320;2024-03-02T09:12:26;28.95;;;11.25;;
38399;SDS011;24180;42.676;23.320;2024-03-02T09:14:51;29.45;;;11.65;;
38399;SDS011;24180;42.676;23.320;2024-03-02T09:17:16;26.85;;;11.63;;
38399;SDS011;24180;42.676;23.320;2024-03-02T09:19:42;26.90;;;11.88;;
38399;SDS011;24180;42.676;23.320;2024-03-02T09:22:08;24.45;;;11.02;;
38399;SDS011;24180;42.676;23.320;2024-03-02T09:24:34;25.13;;;11.02;;
38399;SDS011;24180;42.676;23.320;2024-03-02T09:27:00;30.15;;;11.95;;
38399;SDS011;24180;42.676;23.320;2024-03-02T09:29:25;26.52;;;11.38;;
38399;SDS011;24180;42.676;23.320;2024-03-02T09:31:51;25.00;;;11.40;;
38399;SDS011;24180;42.676;23.320;2024-03-02T09:34:17;25.23;;;10.95;;
38399;SDS011;24180;42.676;23.320;2024-03-02T09:36:42;26.88;;;12.00;;
38399;SDS011;24180;42.676;23.320;2024-03-02T09:39:08;27.25;;;11.35;;
38399;SDS011;24180;42.676;23.320;2024-03-02T09:41:37;26.55;;;11.65;;
38399;SDS011;24180;42.676;23.320;2024-03-02T09:44:03;20.77;;;10.38;;
38399;SDS011;24180;42.676;23.320;2024-03-02T09:46:30;24.50;;;10.75;;
38399;SDS011;24180;42.676;23.320;2024-03-02T09:48:55;24.95;;;10.90;;
38399;SDS011;24180;42.676;23.320;2024-03-02T09:51:21;23.42;;;10.80;;
38399;SDS011;24180;42.676;23.320;2024-03-02T09:53:46;22.92;;;10.55;;
38399;SDS011;24180;42.676;23.320;2024-03-02T09:56:13;27.50;;;10.93;;
38399;SDS011;24180;42.676;23.320;2024-03-02T09:58:40;23.30;;;11.15;;
38399;SDS011;24180;42.676;23.320;2024-03-02T10:01:06;27.10;;;11.75;;
38399;SDS011;24180;42.676;23.320;2024-03-02T10:03:33;25.55;;;11.82;;
38399;SDS011;24180;42.676;23.320;2024-03-02T10:08:43;28.38;;;10.77;;
38399;SDS011;24180;42.676;23.320;2024-03-02T10:11:09;23.42;;;9.68;;
38399;SDS011;24180;42.676;23.320;2024-03-02T10:13:34;27.38;;;11.05;;
38399;SDS011;24180;42.676;23.320;2024-03-02T10:16:02;25.08;;;10.90;;
38399;SDS011;24180;42.676;23.320;2024-03-02T10:18:37;27.02;;;11.43;;
38399;SDS011;24180;42.676;23.320;2024-03-02T10:21:14;24.63;;;10.50;;
38399;SDS011;24180;42.676;23.320;2024-03-02T10:23:40;22.60;;;10.57;;
38399;SDS011;24180;42.676;23.320;2024-03-02T10:26:26;25.20;;;11.90;;
38399;SDS011;24180;42.676;23.320;2024-03-02T10:28:51;27.00;;;11.98;;
38399;SDS011;24180;42.676;23.320;2024-03-02T10:31:24;24.60;;;11.43;;
38399;SDS011;24180;42.676;23.320;2024-03-02T10:33:53;33.03;;;12.43;;
38399;SDS011;24180;42.676;23.320;2024-03-02T10:36:20;28.85;;;11.45;;
38399;SDS011;24180;42.676;23.320;2024-03-02T10:38:46;27.58;;;12.18;;
38399;SDS011;24180;42.676;23.320;2024-03-02T10:41:23;28.90;;;11.98;;
38399;SDS011;24180;42.676;23.320;2024-03-02T10:43:49;27.23;;;12.02;;
38399;SDS011;24180;42.676;23.320;2024-03-02T10:46:19;29.92;;;12.43;;
38399;SDS011;24180;42.676;23.320;2024-03-02T10:48:45;30.63;;;13.40;;
38399;SDS011;24180;42.676;23.320;2024-03-02T10:51:11;32.35;;;12.65;;
38399;SDS011;24180;42.676;23.320;2024-03-02T10:53:37;23.92;;;10.60;;
38399;SDS011;24180;42.676;23.320;2024-03-02T10:56:02;28.42;;;12.00;;
38399;SDS011;24180;42.676;23.320;2024-03-02T10:58:32;20.50;;;10.57;;
38399;SDS011;24180;42.676;23.320;2024-03-02T11:01:02;23.33;;;11.15;;
38399;SDS011;24180;42.676;23.320;2024-03-02T11:03:33;28.67;;;10.88;;
38399;SDS011;24180;42.676;23.320;2024-03-02T11:06:03;28.95;;;11.00;;
38399;SDS011;24180;42.676;23.320;2024-03-02T11:08:32;27.63;;;11.10;;
38399;SDS011;24180;42.676;23.320;2024-03-02T11:11:02;21.38;;;10.68;;
38399;SDS011;24180;42.676;23.320;2024-03-02T11:13:32;25.65;;;11.43;;
38399;SDS011;24180;42.676;23.320;2024-03-02T11:15:59;27.00;;;10.50;;
38399;SDS011;24180;42.676;23.320;2024-03-02T11:18:30;25.23;;;11.40;;
38399;SDS011;24180;42.676;23.320;2024-03-02T11:20:57;25.27;;;11.15;;
38399;SDS011;24180;42.676;23.320;2024-03-02T11:23:33;23.30;;;11.55;;
38399;SDS011;24180;42.676;23.320;2024-03-02T11:28:45;26.25;;;11.57;;
38399;SDS011;24180;42.676;23.320;2024-03-02T11:31:11;22.63;;;10.20;;
38399;SDS011;24180;42.676;23.320;2024-03-02T11:33:37;21.67;;;10.35;;
38399;SDS011;24180;42.676;23.320;2024-03-02T11:36:02;26.42;;;10.95;;
38399;SDS011;24180;42.676;23.320;2024-03-02T11:38:30;24.13;;;11.50;;
38399;SDS011;24180;42.676;23.320;2024-03-02T11:40:57;20.80;;;10.65;;
38399;SDS011;24180;42.676;23.320;2024-03-02T11:43:25;23.33;;;10.30;;
38399;SDS011;24180;42.676;23.320;2024-03-02T11:46:03;27.77;;;12.23;;
38399;SDS011;24180;42.676;23.320;2024-03-02T11:48:32;22.60;;;10.00;;
38399;SDS011;24180;42.676;23.320;2024-03-02T11:50:58;26.70;;;10.82;;
38399;SDS011;24180;42.676;23.320;2024-03-02T11:53:26;22.52;;;10.23;;
38399;SDS011;24180;42.676;23.320;2024-03-02T11:55:55;25.77;;;11.43;;
38399;SDS011;24180;42.676;23.320;2024-03-02T11:58:21;23.88;;;10.60;;
38399;SDS011;24180;42.676;23.320;2024-03-02T12:00:52;22.80;;;10.90;;
38399;SDS011;24180;42.676;23.320;2024-03-02T12:03:18;24.92;;;11.60;;
38399;SDS011;24180;42.676;23.320;2024-03-02T12:05:50;21.50;;;10.20;;
38399;SDS011;24180;42.676;23.320;2024-03-02T12:08:17;23.85;;;10.82;;
38399;SDS011;24180;42.676;23.320;2024-03-02T12:10:43;26.08;;;10.82;;
38399;SDS011;24180;42.676;23.320;2024-03-02T12:13:21;22.90;;;10.60;;
38399;SDS011;24180;42.676;23.320;2024-03-02T12:15:47;21.42;;;10.95;;
38399;SDS011;24180;42.676;23.320;2024-03-02T12:18:13;21.52;;;10.20;;
38399;SDS011;24180;42.676;23.320;2024-03-02T12:20:38;28.92;;;11.32;;
38399;SDS011;24180;42.676;23.320;2024-03-02T12:23:04;24.58;;;11.23;;
38399;SDS011;24180;42.676;23.320;2024-03-02T12:25:30;23.10;;;11.23;;
38399;SDS011;24180;42.676;23.320;2024-03-02T12:27:58;25.25;;;12.43;;
38399;SDS011;24180;42.676;23.320;2024-03-02T12:30:26;27.52;;;12.90;;
38399;SDS011;24180;42.676;23.320;2024-03-02T12:32:54;26.38;;;11.95;;
38399;SDS011;24180;42.676;23.320;2024-03-02T12:35:19;23.98;;;10.75;;
38399;SDS011;24180;42.676;23.320;2024-03-02T12:37:49;24.55;;;11.65;;
38399;SDS011;24180;42.676;23.320;2024-03-02T12:40:15;23.90;;;11.15;;
38399;SDS011;24180;42.676;23.320;2024-03-02T12:42:43;19.58;;;11.10;;
38399;SDS011;24180;42.676;23.320;2024-03-02T12:45:10;21.63;;;10.85;;
38399;SDS011;24180;42.676;23.320;2024-03-02T12:47:36;20.73;;;10.95;;
38399;SDS011;24180;42.676;23.320;2024-03-02T12:50:03;24.30;;;11.57;;
38399;SDS011;24180;42.676;23.320;2024-03-02T12:52:29;21.13;;;11.30;;
38399;SDS011;24180;42.676;23.320;2024-03-02T12:54:55;19.75;;;10.32;;
38399;SDS011;24180;42.676;23.320;2024-03-02T12:57:31;29.60;;;10.38;;
38399;SDS011;24180;42.676;23.320;2024-03-02T13:00:04;21.95;;;9.98;;
38399;SDS011;24180;42.676;23.320;2024-03-02T13:02:39;21.15;;;9.68;;
38399;SDS011;24180;42.676;23.320;2024-03-02T13:05:06;20.90;;;10.23;;
38399;SDS011;24180;42.676;23.320;2024-03-02T13:07:39;18.70;;;9.63;;
38399;SDS011;24180;42.676;23.320;2024-03-02T13:10:05;19.95;;;11.05;;
38399;SDS011;24180;42.676;23.320;2024-03-02T13:12:32;22.25;;;10.73;;
38399;SDS011;24180;42.676;23.320;2024-03-02T13:14:58;21.88;;;11.18;;
38399;SDS011;24180;42.676;23.320;2024-03-02T13:17:24;22.70;;;10.05;;
38399;SDS011;24180;42.676;23.320;2024-03-02T13:19:56;24.02;;;10.88;;
38399;SDS011;24180;42.676;23.320;2024-03-02T13:24:49;19.55;;;9.57;;
38399;SDS011;24180;42.676;23.320;2024-03-02T13:27:15;21.15;;;10.65;;
38399;SDS011;24180;42.676;23.320;2024-03-02T13:29:41;23.20;;;11.07;;
38399;SDS011;24180;42.676;23.320;2024-03-02T13:32:10;24.15;;;10.45;;
38399;SDS011;24180;42.676;23.320;2024-03-02T13:34:35;22.50;;;10.95;;
38399;SDS011;24180;42.676;23.320;2024-03-02T13:37:02;23.42;;;10.77;;
38399;SDS011;24180;42.676;23.320;2024-03-02T13:39:28;20.92;;;10.57;;
38399;SDS011;24180;42.676;23.320;2024-03-02T13:41:56;17.77;;;9.48;;
38399;SDS011;24180;42.676;23.320;2024-03-02T13:44:29;19.95;;;9.90;;
38399;SDS011;24180;42.676;23.320;2024-03-02T13:46:55;25.13;;;11.07;;
38399;SDS011;24180;42.676;23.320;2024-03-02T13:49:20;21.98;;;10.60;;
38399;SDS011;24180;42.676;23.320;2024-03-02T13:51:46;21.60;;;10.90;;
38399;SDS011;24180;42.676;23.320;2024-03-02T13:54:11;22.17;;;10.52;;
38399;SDS011;24180;42.676;23.320;2024-03-02T13:56:37;18.33;;;10.07;;
38399;SDS011;24180;42.676;23.320;2024-03-02T13:59:04;20.75;;;10.35;;
38399;SDS011;24180;42.676;23.320;2024-03-02T14:03:57;25.30;;;9.32;;
38399;SDS011;24180;42.676;23.320;2024-03-02T14:06:23;19.33;;;9.77;;
38399;SDS011;24180;42.676;23.320;2024-03-02T14:08:51;21.65;;;10.02;;
38399;SDS011;24180;42.676;23.320;2024-03-02T14:11:16;19.70;;;10.05;;
38399;SDS011;24180;42.676;23.320;2024-03-02T14:13:42;20.92;;;10.70;;
38399;SDS011;24180;42.676;23.320;2024-03-02T14:16:10;20.63;;;10.55;;
38399;SDS011;24180;42.676;23.320;2024-03-02T14:18:35;21.95;;;10.15;;
38399;SDS011;24180;42.676;23.320;2024-03-02T14:21:01;22.60;;;11.00;;
38399;SDS011;24180;42.676;23.320;2024-03-02T14:23:26;18.58;;;10.38;;
38399;SDS011;24180;42.676;23.320;2024-03-02T14:25:54;20.52;;;9.95;;
38399;SDS011;24180;42.676;23.320;2024-03-02T14:28:20;19.88;;;10.45;;
38399;SDS011;24180;42.676;23.320;2024-03-02T14:30:45;19.40;;;9.70;;
38399;SDS011;24180;42.676;23.320;2024-03-02T14:33:11;21.35;;;10.32;;